createdAt,value
2018-09-05T00:01:27.431Z,15.33
2018-09-05T00:03:55.007Z,15.30
2018-09-05T00:06:22.572Z,16.37
2018-09-05T00:08:50.122Z,16.43
2018-09-05T00:11:17.920Z,17.40
2018-09-05T00:13:45.470Z,17.10
2018-09-05T00:16:13.006Z,18.33
2018-09-05T00:18:40.565Z,18.93
2018-09-05T00:21:08.165Z,17.23
2018-09-05T00:23:35.709Z,17.27
2018-09-05T00:26:03.492Z,18.80
2018-09-05T00:28:31.009Z,18.37
2018-09-05T00:30:58.621Z,19.33
2018-09-05T00:33:26.237Z,18.17
2018-09-05T00:35:53.780Z,17.57
2018-09-05T00:38:21.358Z,17.33
2018-09-05T00:40:48.910Z,16.87
2018-09-05T00:43:16.454Z,16.83
2018-09-05T00:45:44.026Z,17.10
2018-09-05T00:48:11.654Z,18.77
2018-09-05T00:50:39.215Z,16.07
2018-09-05T00:53:06.789Z,17.90
2018-09-05T00:55:34.352Z,15.70
2018-09-05T00:58:01.905Z,18.37
2018-09-05T01:00:29.498Z,20.30
2018-09-05T01:03:18.255Z,18.30
2018-09-05T01:05:45.806Z,18.70
2018-09-05T01:08:13.386Z,19.07
2018-09-05T01:10:40.934Z,20.30
2018-09-05T01:13:08.485Z,21.00
2018-09-05T01:15:36.047Z,18.87
2018-09-05T01:18:03.760Z,17.10
2018-09-05T01:20:31.311Z,17.30
2018-09-05T01:22:58.901Z,16.60
2018-09-05T01:25:26.486Z,14.20
2018-09-05T01:27:54.086Z,16.90
2018-09-05T01:30:25.341Z,16.43
2018-09-05T01:32:52.885Z,16.60
2018-09-05T01:35:20.495Z,16.33
2018-09-05T01:37:48.062Z,17.53
2018-09-05T01:40:15.622Z,15.00
2018-09-05T01:42:43.222Z,15.37
2018-09-05T01:45:10.818Z,15.67
2018-09-05T01:47:38.356Z,15.97
2018-09-05T01:50:05.920Z,17.97
2018-09-05T01:52:33.481Z,16.00
2018-09-05T01:55:01.073Z,16.30
2018-09-05T01:57:28.621Z,16.10
2018-09-05T01:59:56.199Z,16.97
2018-09-05T02:02:24.918Z,16.50
2018-09-05T02:04:53.811Z,16.43
2018-09-05T02:07:21.404Z,18.27
2018-09-05T02:09:48.949Z,17.57
2018-09-05T02:12:16.540Z,15.50
2018-09-05T02:14:44.097Z,17.00
2018-09-05T02:17:11.643Z,16.00
2018-09-05T02:19:39.189Z,16.43
2018-09-05T02:22:06.749Z,17.40
2018-09-05T02:24:34.294Z,17.00
2018-09-05T02:27:01.840Z,17.70
2018-09-05T02:29:29.356Z,15.97
2018-09-05T02:31:56.913Z,17.93
2018-09-05T02:34:24.444Z,17.20
2018-09-05T02:36:51.997Z,17.57
2018-09-05T02:39:19.536Z,17.67
2018-09-05T02:41:47.076Z,18.33
2018-09-05T02:44:19.522Z,17.93
2018-09-05T02:46:47.169Z,15.97
2018-09-05T02:49:14.822Z,15.33
2018-09-05T02:51:42.482Z,15.70
2018-09-05T02:54:10.093Z,15.93
2018-09-05T02:56:37.650Z,15.63
2018-09-05T02:59:05.207Z,16.43
2018-09-05T03:01:32.787Z,16.00
2018-09-05T03:04:00.347Z,15.70
2018-09-05T03:06:27.900Z,18.27
2018-09-05T03:08:55.442Z,15.13
2018-09-05T03:11:22.989Z,15.17
2018-09-05T03:13:50.541Z,15.40
2018-09-05T03:16:18.223Z,16.30
2018-09-05T03:18:45.787Z,14.63
2018-09-05T03:21:13.317Z,15.80
2018-09-05T03:23:40.931Z,14.77
2018-09-05T03:26:08.517Z,14.80
2018-09-05T03:28:36.073Z,15.73
2018-09-05T03:31:03.737Z,14.87
2018-09-05T03:33:31.277Z,15.60
2018-09-05T03:35:58.847Z,15.60
2018-09-05T03:38:26.420Z,14.43
2018-09-05T03:40:54.251Z,16.70
2018-09-05T03:43:21.798Z,17.13
2018-09-05T03:45:49.341Z,15.47
2018-09-05T03:48:16.895Z,15.90
2018-09-05T03:50:44.462Z,15.60
2018-09-05T03:53:12.050Z,16.20
2018-09-05T03:55:39.585Z,16.43
2018-09-05T03:58:07.418Z,16.00
2018-09-05T04:00:36.173Z,17.07
2018-09-05T04:03:04.593Z,16.83
2018-09-05T04:05:32.245Z,16.50
2018-09-05T04:07:59.910Z,16.37
2018-09-05T04:10:27.517Z,15.53
2018-09-05T04:12:55.030Z,16.10
2018-09-05T04:15:22.618Z,17.50
2018-09-05T04:17:50.188Z,16.93
2018-09-05T04:20:17.758Z,17.60
2018-09-05T04:22:45.353Z,17.40
2018-09-05T04:25:12.965Z,16.60
2018-09-05T04:27:40.537Z,18.00
2018-09-05T04:30:08.324Z,17.43
2018-09-05T04:32:35.929Z,17.30
2018-09-05T04:35:03.500Z,19.20
2018-09-05T04:37:31.093Z,19.67
2018-09-05T04:39:58.855Z,19.27
2018-09-05T04:42:26.491Z,20.57
2018-09-05T04:44:54.052Z,17.07
2018-09-05T04:47:21.622Z,20.60
2018-09-05T04:49:49.180Z,18.47
2018-09-05T04:52:16.690Z,17.77
2018-09-05T04:54:44.237Z,21.70
2018-09-05T04:57:11.813Z,21.20
2018-09-05T04:59:39.369Z,22.20
2018-09-05T05:02:06.929Z,21.20
2018-09-05T05:04:34.494Z,21.90
2018-09-05T05:07:02.093Z,19.80
2018-09-05T05:09:29.649Z,21.30
2018-09-05T05:11:57.202Z,20.33
2018-09-05T05:14:24.757Z,20.30
2018-09-05T05:16:52.406Z,19.77
2018-09-05T05:19:19.968Z,18.10
2018-09-05T05:21:47.530Z,18.90
2018-09-05T05:24:15.115Z,19.40
2018-09-05T05:26:42.727Z,19.23
2018-09-05T05:29:10.257Z,20.40
2018-09-05T05:31:37.875Z,19.03
2018-09-05T05:34:05.458Z,19.93
2018-09-05T05:36:33.022Z,18.47
2018-09-05T05:39:00.593Z,21.20
2018-09-05T05:41:28.120Z,19.60
2018-09-05T05:43:55.718Z,18.47
2018-09-05T05:46:23.317Z,19.10
2018-09-05T05:48:50.900Z,19.03
2018-09-05T05:51:18.440Z,17.73
2018-09-05T05:53:46.010Z,19.10
2018-09-05T05:56:13.553Z,18.57
2018-09-05T05:58:41.151Z,16.97
2018-09-05T06:01:08.717Z,18.00
2018-09-05T06:03:36.256Z,16.90
2018-09-05T06:06:03.943Z,16.93
2018-09-05T06:08:31.750Z,15.90
2018-09-05T06:10:59.319Z,15.90
2018-09-05T06:13:26.864Z,15.73
2018-09-05T06:15:54.473Z,16.00
2018-09-05T06:18:22.069Z,17.77
2018-09-05T06:20:49.609Z,17.13
2018-09-05T06:23:17.210Z,16.77
2018-09-05T06:25:44.765Z,18.90
2018-09-05T06:28:12.334Z,17.70
2018-09-05T06:30:39.972Z,18.00
2018-09-05T06:33:07.477Z,18.13
2018-09-05T06:35:35.031Z,19.47
2018-09-05T06:38:02.693Z,17.60
2018-09-05T06:40:30.245Z,18.30
2018-09-05T06:42:57.807Z,18.00
2018-09-05T06:45:25.419Z,18.47
2018-09-05T06:47:52.961Z,16.33
2018-09-05T06:50:20.583Z,16.70
2018-09-05T06:52:48.121Z,16.10
2018-09-05T06:55:15.690Z,16.07
2018-09-05T06:57:43.308Z,15.20
2018-09-05T07:00:11.733Z,14.90
2018-09-05T07:02:39.356Z,12.73
2018-09-05T07:05:07.044Z,14.07
2018-09-05T07:07:34.669Z,14.83
2018-09-05T07:10:02.229Z,13.43
2018-09-05T07:12:29.805Z,14.23
2018-09-05T07:14:57.334Z,13.90
2018-09-05T07:17:26.775Z,13.37
2018-09-05T07:19:54.444Z,13.23
2018-09-05T07:22:22.028Z,16.30
2018-09-05T07:24:49.623Z,17.57
2018-09-05T07:27:17.173Z,15.20
2018-09-05T07:29:44.708Z,14.87
2018-09-05T07:32:12.230Z,13.57
2018-09-05T07:34:39.786Z,15.13
2018-09-05T07:37:07.406Z,12.87
2018-09-05T07:39:34.969Z,13.37
2018-09-05T07:42:02.559Z,11.70
2018-09-05T07:44:30.203Z,16.47
2018-09-05T07:46:57.782Z,12.93
2018-09-05T07:49:25.339Z,16.87
2018-09-05T07:51:52.905Z,14.00
2018-09-05T07:54:20.471Z,13.27
2018-09-05T07:56:48.155Z,14.30
2018-09-05T07:59:15.761Z,14.97
2018-09-05T08:01:43.394Z,13.37
2018-09-05T08:04:11.005Z,13.70
2018-09-05T08:06:38.554Z,12.00
2018-09-05T08:09:08.376Z,12.20
2018-09-05T08:11:35.971Z,12.17
2018-09-05T08:14:03.575Z,12.63
2018-09-05T08:16:31.130Z,11.53
2018-09-05T08:18:58.709Z,14.00
2018-09-05T08:21:26.329Z,9.17
2018-09-05T08:23:53.937Z,10.23
2018-09-05T08:26:21.593Z,13.23
2018-09-05T08:28:49.170Z,10.90
2018-09-05T08:31:16.785Z,11.83
2018-09-05T08:33:44.326Z,12.60
2018-09-05T08:36:12.068Z,10.77
2018-09-05T08:38:39.617Z,10.10
2018-09-05T08:41:10.051Z,12.23
2018-09-05T08:43:38.709Z,13.23
2018-09-05T08:46:06.392Z,13.17
2018-09-05T08:48:33.877Z,12.87
2018-09-05T08:51:01.570Z,10.77
2018-09-05T08:53:29.164Z,12.30
2018-09-05T08:55:56.814Z,12.83
2018-09-05T08:58:24.390Z,11.33
2018-09-05T09:00:51.946Z,11.67
2018-09-05T09:03:19.556Z,13.47
2018-09-05T09:05:47.150Z,13.43
2018-09-05T09:08:14.726Z,11.60
2018-09-05T09:10:42.319Z,13.00
2018-09-05T09:13:09.871Z,12.80
2018-09-05T09:15:37.425Z,11.43
2018-09-05T09:18:05.117Z,12.00
2018-09-05T09:20:32.698Z,14.30
2018-09-05T09:23:00.226Z,13.43
2018-09-05T09:25:28.051Z,11.60
2018-09-05T09:27:55.666Z,11.73
2018-09-05T09:30:23.339Z,11.60
2018-09-05T09:32:50.893Z,14.10
2018-09-05T09:35:18.473Z,12.13
2018-09-05T09:37:46.014Z,10.83
2018-09-05T09:40:13.643Z,10.90
2018-09-05T09:42:41.237Z,12.97
2018-09-05T09:45:08.805Z,10.37
2018-09-05T09:47:36.386Z,12.00
2018-09-05T09:50:04.022Z,11.50
2018-09-05T09:52:36.105Z,9.53
2018-09-05T09:55:03.806Z,9.67
2018-09-05T09:57:31.349Z,9.60
2018-09-05T09:59:58.932Z,10.30
2018-09-05T10:02:32.124Z,9.57
2018-09-05T10:05:05.435Z,9.00
2018-09-05T10:08:37.550Z,9.73
2018-09-05T10:11:10.829Z,10.77
2018-09-05T10:13:43.985Z,9.53
2018-09-05T10:16:17.110Z,9.70
2018-09-05T10:18:46.160Z,11.07
2018-09-05T10:21:13.811Z,10.33
2018-09-05T10:23:41.453Z,8.90
2018-09-05T10:26:09.093Z,9.50
2018-09-05T10:28:36.661Z,10.40
2018-09-05T10:31:04.301Z,10.00
2018-09-05T10:33:31.874Z,8.40
2018-09-05T10:35:59.448Z,10.00
2018-09-05T10:38:26.989Z,9.90
2018-09-05T10:40:54.565Z,11.83
2018-09-05T10:43:22.122Z,12.83
2018-09-05T10:45:49.825Z,13.20
2018-09-05T10:48:17.444Z,12.27
2018-09-05T10:50:45.009Z,12.47
2018-09-05T10:53:12.577Z,9.90
2018-09-05T10:55:40.154Z,12.13
2018-09-05T10:58:07.796Z,13.27
2018-09-05T11:00:35.332Z,12.60
2018-09-05T11:03:02.966Z,13.67
2018-09-05T11:05:30.536Z,12.30
2018-09-05T11:07:58.084Z,11.70
2018-09-05T11:10:25.651Z,15.20
2018-09-05T11:12:53.228Z,13.60
2018-09-05T11:15:20.865Z,13.37
2018-09-05T11:17:48.437Z,13.07
2018-09-05T11:20:16.061Z,11.97
2018-09-05T11:22:43.672Z,11.57
2018-09-05T11:25:11.229Z,12.73
2018-09-05T11:27:38.785Z,11.90
2018-09-05T11:30:06.365Z,10.10
2018-09-05T11:32:34.004Z,9.60
2018-09-05T11:35:01.572Z,10.40
2018-09-05T11:37:29.222Z,9.80
2018-09-05T11:39:56.786Z,10.23
2018-09-05T11:42:24.321Z,11.20
2018-09-05T11:44:51.857Z,10.90
2018-09-05T11:47:19.403Z,9.33
2018-09-05T11:49:46.985Z,10.30
2018-09-05T11:52:14.589Z,10.50
2018-09-05T11:54:42.176Z,10.40
2018-09-05T11:57:09.863Z,10.37
2018-09-05T11:59:37.409Z,10.60
2018-09-05T12:02:05.143Z,10.93
2018-09-05T12:04:33.324Z,10.60
2018-09-05T12:07:00.966Z,10.43
2018-09-05T12:09:28.608Z,10.23
2018-09-05T12:11:56.190Z,8.90
2018-09-05T12:14:23.746Z,10.67
2018-09-05T12:16:51.384Z,9.30
2018-09-05T12:19:18.942Z,9.83
2018-09-05T12:21:46.519Z,11.63
2018-09-05T12:24:14.091Z,11.40
2018-09-05T12:26:41.653Z,12.60
2018-09-05T12:29:11.172Z,11.53
2018-09-05T12:31:39.092Z,12.70
2018-09-05T12:34:06.669Z,13.07
2018-09-05T12:36:34.252Z,11.30
2018-09-05T12:39:01.909Z,10.63
2018-09-05T12:41:29.491Z,10.67
2018-09-05T12:43:57.008Z,10.80
2018-09-05T12:46:24.570Z,10.03
2018-09-05T12:48:52.200Z,11.23
2018-09-05T12:51:19.873Z,10.20
2018-09-05T12:53:47.454Z,10.30
2018-09-05T12:56:14.984Z,9.70
2018-09-05T12:58:42.570Z,8.70
2018-09-05T13:01:10.217Z,9.23
2018-09-05T13:03:37.889Z,9.27
2018-09-05T13:06:05.511Z,10.80
2018-09-05T13:08:33.062Z,9.40
2018-09-05T13:11:00.653Z,10.30
2018-09-05T13:13:28.213Z,10.27
2018-09-05T13:15:55.772Z,9.90
2018-09-05T13:18:23.394Z,10.50
2018-09-05T13:20:50.950Z,9.37
2018-09-05T13:23:18.545Z,10.37
2018-09-05T13:25:46.098Z,10.83
2018-09-05T13:28:13.712Z,11.47
2018-09-05T13:30:41.254Z,11.80
2018-09-05T13:33:08.989Z,11.43
2018-09-05T13:35:36.557Z,12.20
2018-09-05T13:38:04.158Z,12.27
2018-09-05T13:40:31.712Z,12.03
2018-09-05T13:42:59.254Z,11.63
2018-09-05T13:45:26.889Z,12.77
2018-09-05T13:47:54.461Z,11.40
2018-09-05T13:50:22.017Z,12.40
2018-09-05T13:52:49.577Z,12.83
2018-09-05T13:55:17.181Z,11.63
2018-09-05T13:57:44.732Z,11.80
2018-09-05T14:00:14.543Z,12.63
2018-09-05T14:02:42.909Z,10.70
2018-09-05T14:05:10.478Z,11.27
2018-09-05T14:07:38.056Z,10.90
2018-09-05T14:10:05.662Z,10.80
2018-09-05T14:12:33.244Z,10.73
2018-09-05T14:15:00.825Z,11.37
2018-09-05T14:17:28.398Z,10.50
2018-09-05T14:19:56.785Z,10.13
2018-09-05T14:22:24.462Z,10.80
2018-09-05T14:24:52.033Z,9.80
2018-09-05T14:27:19.901Z,11.50
2018-09-05T14:29:47.440Z,9.67
2018-09-05T14:32:15.000Z,9.37
2018-09-05T14:34:42.557Z,10.20
2018-09-05T14:37:10.146Z,9.90
2018-09-05T14:39:37.726Z,9.37
2018-09-05T14:42:05.297Z,11.13
2018-09-05T14:44:32.881Z,9.80
2018-09-05T14:47:00.437Z,9.97
2018-09-05T14:49:27.986Z,10.10
2018-09-05T14:51:55.603Z,10.00
2018-09-05T14:54:23.193Z,10.80
2018-09-05T14:56:50.757Z,10.33
2018-09-05T14:59:18.365Z,10.80
2018-09-05T15:01:45.974Z,11.40
2018-09-05T15:04:13.638Z,14.27
2018-09-05T15:06:41.310Z,11.10
2018-09-05T15:09:10.848Z,11.90
2018-09-05T15:11:38.467Z,12.50
2018-09-05T15:14:06.462Z,11.70
2018-09-05T15:16:34.171Z,12.73
2018-09-05T15:19:01.760Z,11.27
2018-09-05T15:21:29.316Z,12.83
2018-09-05T15:23:56.877Z,12.60
2018-09-05T15:26:24.489Z,12.27
2018-09-05T15:28:52.063Z,12.47
2018-09-05T15:31:19.647Z,11.00
2018-09-05T15:33:47.226Z,11.77
2018-09-05T15:36:14.780Z,11.70
2018-09-05T15:38:42.382Z,11.53
2018-09-05T15:41:09.960Z,12.47
2018-09-05T15:43:37.556Z,12.77
2018-09-05T15:46:05.150Z,13.67
2018-09-05T15:48:32.782Z,12.97
2018-09-05T15:51:00.345Z,13.50
2018-09-05T15:53:27.973Z,12.70
2018-09-05T15:55:55.514Z,14.00
2018-09-05T15:58:23.785Z,12.30
2018-09-05T16:00:51.381Z,13.00
2018-09-05T16:03:19.142Z,13.10
2018-09-05T16:05:46.714Z,15.50
2018-09-05T16:08:14.301Z,13.27
2018-09-05T16:10:41.889Z,15.60
2018-09-05T16:13:09.502Z,15.20
2018-09-05T16:15:37.206Z,14.27
2018-09-05T16:18:04.744Z,15.33
2018-09-05T16:20:32.741Z,15.53
2018-09-05T16:23:00.398Z,15.77
2018-09-05T16:25:28.013Z,15.70
2018-09-05T16:27:55.817Z,16.70
2018-09-05T16:30:23.357Z,17.27
2018-09-05T16:32:51.040Z,18.60
2018-09-05T16:35:18.578Z,17.53
2018-09-05T16:37:46.178Z,19.50
2018-09-05T16:40:13.833Z,19.10
2018-09-05T16:42:41.542Z,18.80
2018-09-05T16:45:09.205Z,16.87
2018-09-05T16:47:36.766Z,17.97
2018-09-05T16:50:04.517Z,18.43
2018-09-05T16:52:32.123Z,18.80
2018-09-05T16:54:59.747Z,17.93
2018-09-05T16:57:27.341Z,19.80
2018-09-05T16:59:55.224Z,22.30
2018-09-05T17:02:23.310Z,22.40
2018-09-05T17:04:51.181Z,19.90
2018-09-05T17:07:18.896Z,16.90
2018-09-05T17:09:46.502Z,16.10
2018-09-05T17:12:14.145Z,14.77
2018-09-05T17:14:41.718Z,13.70
2018-09-05T17:17:21.000Z,15.20
2018-09-05T17:19:48.612Z,18.00
2018-09-05T17:22:16.295Z,15.93
2018-09-05T17:24:43.911Z,15.90
2018-09-05T17:27:11.586Z,16.37
2018-09-05T17:29:39.207Z,17.57
2018-09-05T17:32:06.834Z,15.87
2018-09-05T17:34:34.434Z,16.37
2018-09-05T17:37:02.080Z,24.87
2018-09-05T17:39:29.657Z,31.20
2018-09-05T17:41:57.247Z,19.07
2018-09-05T17:44:24.781Z,20.43
2018-09-05T17:46:52.322Z,18.00
2018-09-05T17:49:19.947Z,17.70
2018-09-05T17:51:47.544Z,16.23
2018-09-05T17:54:15.188Z,17.20
2018-09-05T17:56:42.780Z,16.23
2018-09-05T17:59:10.734Z,16.10
2018-09-05T18:01:38.388Z,17.00
2018-09-05T18:04:05.965Z,17.07
2018-09-05T18:06:33.626Z,17.40
2018-09-05T18:09:01.246Z,17.43
2018-09-05T18:11:28.813Z,17.97
2018-09-05T18:13:56.465Z,16.70
2018-09-05T18:16:24.122Z,18.70
2018-09-05T18:18:51.815Z,20.20
2018-09-05T18:21:19.535Z,19.17
2018-09-05T18:23:47.122Z,19.90
2018-09-05T18:26:14.695Z,20.07
2018-09-05T18:28:42.258Z,18.97
2018-09-05T18:31:09.899Z,19.90
2018-09-05T18:33:37.680Z,18.33
2018-09-05T18:36:05.308Z,20.07
2018-09-05T18:38:32.941Z,18.97
2018-09-05T18:41:00.549Z,20.40
2018-09-05T18:43:28.203Z,20.07
2018-09-05T18:45:55.815Z,19.57
2018-09-05T18:48:23.432Z,17.73
2018-09-05T18:50:51.069Z,20.33
2018-09-05T18:53:18.717Z,19.50
2018-09-05T18:55:46.329Z,19.10
2018-09-05T18:58:13.957Z,18.83
2018-09-05T19:00:41.596Z,18.97
2018-09-05T19:03:09.646Z,17.23
2018-09-05T19:05:37.263Z,18.20
2018-09-05T19:08:05.361Z,18.30
2018-09-05T19:10:32.943Z,17.27
2018-09-05T19:13:00.547Z,19.40
2018-09-05T19:15:28.258Z,19.70
2018-09-05T19:17:55.975Z,20.20
2018-09-05T19:20:23.588Z,19.90
2018-09-05T19:22:51.281Z,22.17
2018-09-05T19:25:18.852Z,19.80
2018-09-05T19:27:46.428Z,18.43
2018-09-05T19:30:14.057Z,22.50
2018-09-05T19:32:41.687Z,18.40
2018-09-05T19:35:09.382Z,21.00
2018-09-05T19:37:37.589Z,19.77
2018-09-05T19:40:05.290Z,18.23
2018-09-05T19:42:33.324Z,20.07
2018-09-05T19:45:01.052Z,18.90
2018-09-05T19:47:28.716Z,18.80
2018-09-05T19:49:56.431Z,18.50
2018-09-05T19:52:24.105Z,19.13
2018-09-05T19:54:51.801Z,18.30
2018-09-05T19:57:19.432Z,18.97
2018-09-05T19:59:47.052Z,18.63
2018-09-05T20:02:14.660Z,19.30
2018-09-05T20:04:42.249Z,17.90
2018-09-05T20:07:09.903Z,18.33
2018-09-05T20:09:37.558Z,20.50
2018-09-05T20:12:05.178Z,18.70
2018-09-05T20:14:32.905Z,18.93
2018-09-05T20:17:00.499Z,17.20
2018-09-05T20:19:28.159Z,16.70
2018-09-05T20:21:55.772Z,19.03
2018-09-05T20:24:23.444Z,17.60
2018-09-05T20:26:51.117Z,17.67
2018-09-05T20:29:18.939Z,17.73
2018-09-05T20:31:46.574Z,17.07
2018-09-05T20:34:14.153Z,18.40
2018-09-05T20:36:41.848Z,17.67
2018-09-05T20:39:10.719Z,16.90
2018-09-05T20:41:38.358Z,17.20
2018-09-05T20:44:05.993Z,18.47
2018-09-05T20:46:33.610Z,16.90
2018-09-05T20:49:01.201Z,17.77
2018-09-05T20:51:44.516Z,16.83
2018-09-05T20:54:12.239Z,30.80
2018-09-05T20:56:39.812Z,23.70
2018-09-05T20:59:07.534Z,20.17
2018-09-05T21:01:35.128Z,17.60
2018-09-05T21:04:02.737Z,17.10
2018-09-05T21:06:30.379Z,18.70
2018-09-05T21:08:57.998Z,18.77
2018-09-05T21:11:25.612Z,18.50
2018-09-05T21:13:53.241Z,20.57
2018-09-05T21:16:20.877Z,20.67
2018-09-05T21:18:48.478Z,18.60
2018-09-05T21:21:16.104Z,18.50
2018-09-05T21:23:43.717Z,19.70
2018-09-05T21:26:11.311Z,20.67
2018-09-05T21:28:38.949Z,18.30
2018-09-05T21:31:06.544Z,20.30
2018-09-05T21:33:34.106Z,19.90
2018-09-05T21:36:01.694Z,20.63
2018-09-05T21:38:29.258Z,20.03
2018-09-05T21:40:56.894Z,20.10
2018-09-05T21:43:24.491Z,21.73
2018-09-05T21:45:52.172Z,20.57
2018-09-05T21:48:19.827Z,19.93
2018-09-05T21:50:47.532Z,22.20
2018-09-05T21:53:15.117Z,22.10
2018-09-05T21:55:42.726Z,21.47
2018-09-05T21:58:10.352Z,20.20
2018-09-05T22:00:37.983Z,20.63
2018-09-05T22:03:05.593Z,20.40
2018-09-05T22:05:33.191Z,21.97
2018-09-05T22:08:00.862Z,22.20
2018-09-05T22:10:28.478Z,22.63
2018-09-05T22:12:56.052Z,23.17
2018-09-05T22:15:23.652Z,22.80
2018-09-05T22:17:51.230Z,22.93
2018-09-05T22:20:18.865Z,22.77
2018-09-05T22:22:46.421Z,23.77
2018-09-05T22:25:14.030Z,24.70
2018-09-05T22:27:41.646Z,26.30
2018-09-05T22:30:09.277Z,22.87
2018-09-05T22:32:36.884Z,25.77
2018-09-05T22:35:04.595Z,24.27
2018-09-05T22:37:32.210Z,24.20
2018-09-05T22:39:59.789Z,22.97
2018-09-05T22:42:27.373Z,24.40
2018-09-05T22:45:06.377Z,22.93
2018-09-05T22:47:45.266Z,24.63
2018-09-05T22:50:31.749Z,24.87
2018-09-05T22:54:15.127Z,24.23
2018-09-05T22:57:08.059Z,25.63
2018-09-05T23:01:51.934Z,26.30
2018-09-05T23:05:30.781Z,24.17
2018-09-05T23:08:22.978Z,27.00
2018-09-05T23:11:01.835Z,25.13
2018-09-05T23:13:40.868Z,26.60
2018-09-05T23:16:19.747Z,26.40
2018-09-05T23:21:03.098Z,27.67
2018-09-05T23:23:42.081Z,27.97
2018-09-05T23:26:10.111Z,26.73
2018-09-05T23:28:38.488Z,28.40
2018-09-05T23:31:06.078Z,26.57
2018-09-05T23:33:34.414Z,26.30
2018-09-05T23:36:02.036Z,26.17
2018-09-05T23:38:29.754Z,24.47
2018-09-05T23:40:57.332Z,26.77
2018-09-05T23:43:24.966Z,26.60
2018-09-05T23:45:52.551Z,25.87
2018-09-05T23:48:20.154Z,25.77
2018-09-05T23:50:47.800Z,26.50
2018-09-05T23:53:15.376Z,24.20
2018-09-05T23:55:42.960Z,23.10
2018-09-05T23:58:10.545Z,24.93
